createdAt,value
2018-11-10T00:01:10.380Z,7.77
2018-11-10T00:03:38.816Z,6.77
2018-11-10T00:06:07.267Z,8.23
2018-11-10T00:08:35.757Z,6.33
2018-11-10T00:11:04.193Z,7.03
2018-11-10T00:13:32.664Z,7.17
2018-11-10T00:16:01.137Z,7.10
2018-11-10T00:18:29.602Z,6.27
2018-11-10T00:20:58.064Z,6.20
2018-11-10T00:23:26.564Z,6.90
2018-11-10T00:25:54.997Z,6.47
2018-11-10T00:28:23.368Z,6.53
2018-11-10T00:30:51.796Z,6.10
2018-11-10T00:33:20.206Z,6.00
2018-11-10T00:35:48.781Z,5.60
2018-11-10T00:38:19.271Z,5.80
2018-11-10T00:40:47.699Z,5.73
2018-11-10T00:43:16.048Z,5.57
2018-11-10T00:45:44.555Z,5.60
2018-11-10T00:48:12.937Z,5.83
2018-11-10T00:50:41.498Z,6.23
2018-11-10T00:53:09.982Z,6.23
2018-11-10T00:55:38.444Z,5.60
2018-11-10T00:58:06.929Z,5.10
2018-11-10T01:00:35.312Z,5.47
2018-11-10T01:03:03.765Z,5.10
2018-11-10T01:05:32.155Z,4.93
2018-11-10T01:08:08.638Z,4.73
2018-11-10T01:10:57.386Z,5.00
2018-11-10T01:13:25.848Z,5.20
2018-11-10T01:15:54.268Z,5.10
2018-11-10T01:18:22.698Z,4.90
2018-11-10T01:20:51.111Z,5.50
2018-11-10T01:23:27.925Z,5.90
2018-11-10T01:25:56.480Z,4.07
2018-11-10T01:28:25.564Z,4.37
2018-11-10T01:30:53.899Z,5.47
2018-11-10T01:33:22.239Z,4.77
2018-11-10T01:35:51.661Z,4.60
2018-11-10T01:38:20.132Z,4.10
2018-11-10T01:40:48.552Z,4.00
2018-11-10T01:43:16.901Z,4.33
2018-11-10T01:45:45.525Z,4.43
2018-11-10T01:48:14.207Z,3.53
2018-11-10T01:50:42.934Z,3.77
2018-11-10T01:53:11.281Z,4.30
2018-11-10T01:55:39.697Z,3.97
2018-11-10T01:58:08.049Z,4.23
2018-11-10T02:00:36.709Z,3.63
2018-11-10T02:03:05.321Z,3.63
2018-11-10T02:05:33.936Z,3.60
2018-11-10T02:08:02.311Z,3.53
2018-11-10T02:10:30.720Z,3.50
2018-11-10T02:12:59.188Z,3.07
2018-11-10T02:15:27.890Z,3.57
2018-11-10T02:17:56.313Z,3.60
2018-11-10T02:20:25.164Z,3.33
2018-11-10T02:22:53.858Z,3.60
2018-11-10T02:25:22.332Z,3.67
2018-11-10T02:27:51.645Z,3.80
2018-11-10T02:30:20.012Z,3.57
2018-11-10T02:32:48.644Z,4.03
2018-11-10T02:35:17.006Z,3.70
2018-11-10T02:37:45.869Z,4.07
2018-11-10T02:40:15.276Z,3.93
2018-11-10T02:42:44.235Z,3.33
2018-11-10T02:45:14.794Z,3.33
2018-11-10T02:47:44.089Z,3.73
2018-11-10T02:50:12.928Z,3.70
2018-11-10T02:52:41.630Z,3.80
2018-11-10T02:55:10.942Z,3.60
2018-11-10T02:57:39.399Z,3.33
2018-11-10T03:00:09.140Z,3.50
2018-11-10T03:02:37.887Z,3.73
2018-11-10T03:05:07.502Z,3.50
2018-11-10T03:07:36.216Z,3.80
2018-11-10T03:10:05.560Z,3.50
2018-11-10T03:12:33.973Z,3.73
2018-11-10T03:15:02.383Z,4.23
2018-11-10T03:17:31.022Z,4.03
2018-11-10T03:19:59.423Z,4.20
2018-11-10T03:22:28.011Z,4.07
2018-11-10T03:24:56.885Z,3.67
2018-11-10T03:27:25.232Z,3.73
2018-11-10T03:29:53.627Z,3.97
2018-11-10T03:32:22.275Z,3.70
2018-11-10T03:34:50.704Z,3.87
2018-11-10T03:37:19.081Z,4.30
2018-11-10T03:39:47.483Z,4.10
2018-11-10T03:42:15.963Z,4.50
2018-11-10T03:44:44.677Z,4.07
2018-11-10T03:47:13.742Z,4.40
2018-11-10T03:49:42.158Z,4.30
2018-11-10T03:52:10.814Z,3.93
2018-11-10T03:54:39.179Z,4.17
2018-11-10T03:57:07.600Z,3.80
2018-11-10T03:59:36.082Z,4.27
2018-11-10T04:02:04.896Z,3.37
2018-11-10T04:04:33.313Z,4.00
2018-11-10T04:07:02.266Z,4.13
2018-11-10T04:09:31.085Z,3.73
2018-11-10T04:11:59.738Z,3.30
2018-11-10T04:14:28.158Z,4.23
2018-11-10T04:16:56.569Z,3.90
2018-11-10T04:19:24.968Z,3.77
2018-11-10T04:21:54.829Z,3.70
2018-11-10T04:24:23.260Z,3.50
2018-11-10T04:26:51.964Z,3.47
2018-11-10T04:29:21.277Z,3.87
2018-11-10T04:31:49.762Z,3.53
2018-11-10T04:34:18.153Z,3.37
2018-11-10T04:36:46.886Z,3.93
2018-11-10T04:39:15.533Z,3.40
2018-11-10T04:41:43.933Z,3.93
2018-11-10T04:44:12.500Z,4.17
2018-11-10T04:46:40.917Z,3.53
2018-11-10T04:49:09.289Z,3.70
2018-11-10T04:51:37.638Z,3.60
2018-11-10T04:54:06.069Z,3.57
2018-11-10T04:56:34.790Z,3.30
2018-11-10T04:59:03.189Z,4.13
2018-11-10T05:01:31.654Z,4.17
2018-11-10T05:03:59.895Z,3.87
2018-11-10T05:06:28.308Z,3.63
2018-11-10T05:08:56.751Z,3.47
2018-11-10T05:11:25.147Z,4.03
2018-11-10T05:13:55.034Z,4.17
2018-11-10T05:16:23.419Z,3.70
2018-11-10T05:18:51.843Z,3.87
2018-11-10T05:21:20.471Z,4.87
2018-11-10T05:23:50.201Z,4.13
2018-11-10T05:26:18.812Z,4.80
2018-11-10T05:28:47.508Z,4.33
2018-11-10T05:31:16.206Z,5.07
2018-11-10T05:33:44.468Z,5.10
2018-11-10T05:36:12.914Z,4.57
2018-11-10T05:38:41.641Z,4.87
2018-11-10T05:41:10.028Z,5.17
2018-11-10T05:43:38.599Z,4.93
2018-11-10T05:46:07.272Z,4.80
2018-11-10T05:48:35.871Z,4.73
2018-11-10T05:51:04.216Z,5.23
2018-11-10T05:53:32.610Z,4.73
2018-11-10T05:56:01.019Z,4.57
2018-11-10T05:58:29.349Z,4.90
2018-11-10T06:00:57.917Z,4.30
2018-11-10T06:03:26.831Z,4.70
2018-11-10T06:05:55.268Z,4.90
2018-11-10T06:08:24.141Z,4.60
2018-11-10T06:10:52.548Z,4.93
2018-11-10T06:13:21.126Z,5.07
2018-11-10T06:15:49.572Z,5.20
2018-11-10T06:18:18.559Z,4.97
2018-11-10T06:20:46.975Z,5.37
2018-11-10T06:23:15.376Z,4.87
2018-11-10T06:25:43.895Z,4.87
2018-11-10T06:28:12.815Z,4.93
2018-11-10T06:30:41.699Z,5.33
2018-11-10T06:33:10.100Z,4.93
2018-11-10T06:35:38.568Z,4.80
2018-11-10T06:38:07.135Z,4.97
2018-11-10T06:40:36.525Z,5.20
2018-11-10T06:43:05.633Z,5.47
2018-11-10T06:45:36.367Z,5.50
2018-11-10T06:48:05.388Z,6.07
2018-11-10T06:50:34.085Z,4.70
2018-11-10T06:53:02.714Z,5.50
2018-11-10T06:55:30.951Z,5.10
2018-11-10T06:57:59.335Z,5.23
2018-11-10T07:00:28.908Z,4.90
2018-11-10T07:02:57.537Z,5.17
2018-11-10T07:05:25.939Z,5.03
2018-11-10T07:07:58.213Z,5.37
2018-11-10T07:10:36.143Z,4.87
2018-11-10T07:13:04.758Z,4.90
2018-11-10T07:15:33.151Z,5.03
2018-11-10T07:18:01.631Z,6.13
2018-11-10T07:20:30.167Z,5.43
2018-11-10T07:22:59.017Z,5.67
2018-11-10T07:25:27.624Z,5.53
2018-11-10T07:27:56.192Z,6.03
2018-11-10T07:30:24.559Z,5.47
2018-11-10T07:32:52.871Z,5.40
2018-11-10T07:35:21.291Z,6.00
2018-11-10T07:37:50.929Z,6.57
2018-11-10T07:40:19.667Z,5.70
2018-11-10T07:43:01.159Z,6.93
2018-11-10T07:45:29.607Z,6.00
2018-11-10T07:47:58.106Z,6.50
2018-11-10T07:50:27.511Z,6.30
2018-11-10T07:52:56.092Z,5.77
2018-11-10T07:55:24.516Z,6.63
2018-11-10T07:57:52.997Z,6.97
2018-11-10T08:00:21.446Z,6.60
2018-11-10T08:02:50.310Z,7.43
2018-11-10T08:05:18.807Z,6.87
2018-11-10T08:07:47.281Z,6.90
2018-11-10T08:10:16.156Z,6.93
2018-11-10T08:12:44.848Z,6.67
2018-11-10T08:15:14.552Z,6.57
2018-11-10T08:17:43.290Z,6.77
2018-11-10T08:20:18.019Z,7.00
2018-11-10T08:22:47.382Z,8.07
2018-11-10T08:25:15.957Z,8.03
2018-11-10T08:27:44.455Z,8.80
2018-11-10T08:30:13.939Z,8.53
2018-11-10T08:32:42.929Z,8.10
2018-11-10T08:35:12.652Z,7.70
2018-11-10T08:37:41.152Z,6.77
2018-11-10T08:40:12.766Z,6.90
2018-11-10T08:42:41.439Z,5.27
2018-11-10T08:45:11.366Z,5.57
2018-11-10T08:47:40.875Z,5.20
2018-11-10T08:50:10.370Z,5.57
2018-11-10T08:52:40.400Z,6.30
2018-11-10T08:55:12.552Z,5.70
2018-11-10T08:57:46.471Z,5.07
2018-11-10T09:00:15.226Z,4.63
2018-11-10T09:02:43.765Z,4.57
2018-11-10T09:05:13.317Z,4.67
2018-11-10T09:07:42.131Z,4.90
2018-11-10T09:10:12.431Z,5.80
2018-11-10T09:12:41.101Z,6.50
2018-11-10T09:15:11.725Z,5.30
2018-11-10T09:17:40.532Z,5.20
2018-11-10T09:20:11.485Z,4.03
2018-11-10T09:22:41.453Z,5.17
2018-11-10T09:25:11.817Z,4.70
2018-11-10T09:27:40.757Z,4.50
2018-11-10T09:30:10.893Z,4.97
2018-11-10T09:32:39.552Z,4.53
2018-11-10T09:35:08.978Z,5.50
2018-11-10T09:37:37.495Z,5.30
2018-11-10T09:40:07.576Z,4.73
2018-11-10T09:42:36.210Z,4.77
2018-11-10T09:45:05.957Z,4.53
2018-11-10T09:47:34.392Z,5.17
2018-11-10T09:50:03.093Z,5.00
2018-11-10T09:52:31.744Z,4.30
2018-11-10T09:55:00.141Z,4.67
2018-11-10T09:57:28.810Z,4.23
2018-11-10T09:59:57.277Z,4.87
2018-11-10T10:02:26.546Z,4.37
2018-11-10T10:04:54.943Z,4.70
2018-11-10T10:07:23.600Z,4.30
2018-11-10T10:09:52.633Z,5.10
2018-11-10T10:12:21.361Z,5.17
2018-11-10T10:14:50.413Z,4.13
2018-11-10T10:17:18.870Z,4.90
2018-11-10T10:19:47.688Z,4.43
2018-11-10T10:22:16.121Z,4.17
2018-11-10T10:24:44.595Z,3.83
2018-11-10T10:27:13.494Z,5.33
2018-11-10T10:29:42.112Z,4.30
2018-11-10T10:32:10.763Z,5.77
2018-11-10T10:34:39.287Z,4.40
2018-11-10T10:37:07.921Z,4.40
2018-11-10T10:39:36.487Z,4.00
2018-11-10T10:42:05.149Z,4.27
2018-11-10T10:44:33.676Z,4.73
2018-11-10T10:47:02.351Z,4.20
2018-11-10T10:49:30.762Z,4.50
2018-11-10T10:51:59.171Z,4.17
2018-11-10T10:54:27.753Z,3.97
2018-11-10T10:56:56.360Z,4.33
2018-11-10T10:59:24.666Z,4.50
2018-11-10T11:01:58.321Z,4.43
2018-11-10T11:04:32.274Z,4.27
2018-11-10T11:07:00.656Z,4.67
2018-11-10T11:09:29.282Z,3.63
2018-11-10T11:11:57.795Z,4.47
2018-11-10T11:14:26.259Z,4.77
2018-11-10T11:16:55.129Z,3.60
2018-11-10T11:19:24.328Z,3.97
2018-11-10T11:21:53.024Z,3.77
2018-11-10T11:24:21.487Z,4.03
2018-11-10T11:26:50.608Z,4.40
2018-11-10T11:29:19.517Z,4.50
2018-11-10T11:31:47.919Z,3.93
2018-11-10T11:34:25.877Z,3.83
2018-11-10T11:36:54.562Z,3.60
2018-11-10T11:39:23.239Z,3.97
2018-11-10T11:41:52.201Z,3.83
2018-11-10T11:44:20.668Z,3.23
2018-11-10T11:46:49.314Z,3.53
2018-11-10T11:49:18.133Z,3.50
2018-11-10T11:51:46.523Z,2.90
2018-11-10T11:54:15.361Z,3.53
2018-11-10T11:56:43.739Z,2.90
2018-11-10T11:59:12.384Z,3.30
2018-11-10T12:01:40.785Z,3.27
2018-11-10T12:04:09.444Z,3.23
2018-11-10T12:06:38.052Z,3.00
2018-11-10T12:09:09.034Z,3.00
2018-11-10T12:11:37.675Z,2.93
2018-11-10T12:14:06.244Z,3.43
2018-11-10T12:16:34.818Z,3.27
2018-11-10T12:19:03.572Z,3.20
2018-11-10T12:21:31.989Z,2.80
2018-11-10T12:24:02.503Z,2.77
2018-11-10T12:26:31.158Z,2.87
2018-11-10T12:29:00.730Z,2.90
2018-11-10T12:31:29.448Z,2.57
2018-11-10T12:34:00.191Z,3.00
2018-11-10T12:36:28.605Z,2.87
2018-11-10T12:38:57.030Z,2.80
2018-11-10T12:41:25.753Z,2.90
2018-11-10T12:44:01.395Z,3.13
2018-11-10T12:46:33.891Z,3.20
2018-11-10T12:49:05.411Z,3.97
2018-11-10T12:51:34.721Z,3.90
2018-11-10T12:54:03.401Z,3.67
2018-11-10T12:56:32.072Z,3.63
2018-11-10T12:59:01.360Z,3.70
2018-11-10T13:01:30.366Z,5.10
2018-11-10T13:04:00.968Z,4.50
2018-11-10T13:09:39.080Z,4.20
2018-11-10T13:12:15.182Z,4.70
2018-11-10T13:14:43.670Z,5.50
2018-11-10T13:17:14.120Z,5.37
2018-11-10T13:19:42.928Z,5.13
2018-11-10T13:22:11.481Z,6.53
2018-11-10T13:24:39.917Z,5.73
2018-11-10T13:27:08.517Z,4.90
2018-11-10T13:29:37.206Z,6.20
2018-11-10T13:32:07.130Z,5.43
2018-11-10T13:34:35.537Z,6.50
2018-11-10T13:37:04.251Z,7.07
2018-11-10T13:39:33.560Z,6.80
2018-11-10T13:42:02.376Z,7.10
2018-11-10T13:44:31.064Z,7.17
2018-11-10T13:46:59.644Z,6.87
2018-11-10T13:49:29.065Z,7.20
2018-11-10T13:51:57.910Z,7.43
2018-11-10T13:54:25.979Z,7.33
2018-11-10T13:56:54.896Z,7.07
2018-11-10T13:59:23.590Z,8.40
2018-11-10T14:01:51.920Z,8.03
2018-11-10T14:04:20.345Z,5.73
2018-11-10T14:06:48.812Z,6.70
2018-11-10T14:09:17.652Z,6.97
2018-11-10T14:11:46.025Z,5.63
2018-11-10T14:14:14.801Z,5.07
2018-11-10T14:16:44.467Z,4.47
2018-11-10T14:19:13.024Z,4.63
2018-11-10T14:21:41.404Z,4.90
2018-11-10T14:24:10.066Z,4.47
2018-11-10T14:26:38.957Z,5.97
2018-11-10T14:29:08.488Z,5.83
2018-11-10T14:31:36.939Z,5.33
2018-11-10T14:34:05.698Z,6.30
2018-11-10T14:36:34.313Z,6.53
2018-11-10T14:39:03.070Z,7.37
2018-11-10T14:41:31.889Z,7.10
2018-11-10T14:44:00.492Z,7.53
2018-11-10T14:46:29.159Z,7.30
2018-11-10T14:48:57.799Z,7.63
2018-11-10T14:51:26.358Z,7.97
2018-11-10T14:53:54.864Z,7.50
2018-11-10T14:56:23.928Z,7.00
2018-11-10T14:58:52.413Z,7.33
2018-11-10T15:01:20.822Z,7.37
2018-11-10T15:03:49.314Z,7.53
2018-11-10T15:06:18.012Z,7.53
2018-11-10T15:08:46.732Z,6.97
2018-11-10T15:11:15.345Z,7.80
2018-11-10T15:13:44.636Z,7.93
2018-11-10T15:16:13.461Z,6.67
2018-11-10T15:18:42.142Z,7.73
2018-11-10T15:21:11.310Z,7.17
2018-11-10T15:23:39.865Z,7.50
2018-11-10T15:26:08.299Z,7.07
2018-11-10T15:28:36.921Z,6.63
2018-11-10T15:31:07.273Z,6.70
2018-11-10T15:33:35.702Z,6.93
2018-11-10T15:36:05.592Z,6.70
2018-11-10T15:38:34.846Z,6.23
2018-11-10T15:41:05.577Z,6.10
2018-11-10T15:43:33.946Z,5.30
2018-11-10T15:46:03.827Z,5.17
2018-11-10T15:48:32.310Z,5.07
2018-11-10T15:51:00.756Z,6.23
2018-11-10T15:53:29.152Z,5.92
2018-11-10T15:55:57.721Z,4.73
2018-11-10T15:58:26.518Z,4.50
2018-11-10T16:00:55.218Z,4.57
2018-11-10T16:03:23.865Z,4.47
2018-11-10T16:05:52.572Z,4.77
2018-11-10T16:08:21.026Z,4.93
2018-11-10T16:10:49.796Z,5.07
2018-11-10T16:13:18.396Z,4.57
2018-11-10T16:15:46.772Z,4.73
2018-11-10T16:18:15.255Z,5.70
2018-11-10T16:20:43.674Z,5.53
2018-11-10T16:23:12.493Z,5.47
2018-11-10T16:25:41.003Z,5.97
2018-11-10T16:28:09.511Z,5.47
2018-11-10T16:30:38.018Z,7.17
2018-11-10T16:33:06.698Z,6.83
2018-11-10T16:35:35.455Z,6.70
2018-11-10T16:38:06.101Z,6.27
2018-11-10T16:40:36.019Z,7.27
2018-11-10T16:43:04.680Z,6.93
2018-11-10T16:45:37.121Z,6.43
2018-11-10T16:48:05.998Z,6.07
2018-11-10T16:50:34.642Z,4.70
2018-11-10T16:53:03.222Z,4.90
2018-11-10T16:55:31.697Z,4.37
2018-11-10T16:58:00.133Z,5.00
2018-11-10T17:00:28.647Z,5.20
2018-11-10T17:02:58.636Z,4.20
2018-11-10T17:05:27.026Z,3.87
2018-11-10T17:07:55.558Z,3.37
2018-11-10T17:10:24.105Z,3.10
2018-11-10T17:12:52.600Z,2.77
2018-11-10T17:15:21.097Z,2.70
2018-11-10T17:17:49.473Z,3.10
2018-11-10T17:20:17.893Z,2.77
2018-11-10T17:22:49.880Z,2.87
2018-11-10T17:25:18.297Z,3.10
2018-11-10T17:27:48.440Z,3.27
2018-11-10T17:30:19.361Z,3.63
2018-11-10T17:32:47.638Z,3.77
2018-11-10T17:35:19.685Z,4.77
2018-11-10T17:37:51.732Z,5.57
2018-11-10T17:40:22.465Z,6.00
2018-11-10T17:43:02.408Z,5.40
2018-11-10T17:45:36.135Z,6.37
2018-11-10T17:48:04.880Z,7.07
2018-11-10T17:50:33.352Z,6.63
2018-11-10T17:53:02.675Z,8.10
2018-11-10T17:55:31.082Z,6.73
2018-11-10T17:57:59.758Z,6.63
2018-11-10T18:00:27.965Z,5.93
2018-11-10T18:02:56.436Z,6.57
2018-11-10T18:05:24.956Z,6.40
2018-11-10T18:07:53.352Z,6.57
2018-11-10T18:10:21.814Z,6.40
2018-11-10T18:12:51.280Z,7.03
2018-11-10T18:15:19.815Z,7.53
2018-11-10T18:17:48.295Z,7.20
2018-11-10T18:20:17.539Z,7.57
2018-11-10T18:22:46.247Z,6.70
2018-11-10T18:25:14.915Z,7.10
2018-11-10T18:27:44.203Z,6.90
2018-11-10T18:30:13.722Z,7.47
2018-11-10T18:32:42.449Z,6.83
2018-11-10T18:35:12.046Z,6.83
2018-11-10T18:37:40.899Z,6.80
2018-11-10T18:40:09.376Z,7.67
2018-11-10T18:42:37.749Z,7.13
2018-11-10T18:45:07.485Z,6.87
2018-11-10T18:47:36.122Z,6.73
2018-11-10T18:50:06.483Z,6.77
2018-11-10T18:52:35.049Z,6.87
2018-11-10T18:55:04.236Z,7.40
2018-11-10T18:57:32.911Z,5.93
2018-11-10T19:00:01.264Z,6.33
2018-11-10T19:02:29.660Z,6.13
2018-11-10T19:04:58.778Z,6.40
2018-11-10T19:07:27.368Z,6.13
2018-11-10T19:09:55.891Z,6.03
2018-11-10T19:12:24.412Z,5.80
2018-11-10T19:14:53.802Z,5.93
2018-11-10T19:17:22.334Z,5.97
2018-11-10T19:19:50.860Z,5.83
2018-11-10T19:22:19.798Z,5.80
2018-11-10T19:24:48.225Z,5.80
2018-11-10T19:27:16.851Z,5.93
2018-11-10T19:29:45.441Z,6.30
2018-11-10T19:32:14.540Z,5.60
2018-11-10T19:34:42.922Z,5.27
2018-11-10T19:37:12.763Z,5.60
2018-11-10T19:39:41.232Z,5.50
2018-11-10T19:42:09.750Z,5.00
2018-11-10T19:44:39.288Z,5.40
2018-11-10T19:47:07.784Z,5.27
2018-11-10T19:49:36.764Z,5.13
2018-11-10T19:52:07.716Z,5.10
2018-11-10T19:54:37.200Z,5.20
2018-11-10T19:57:05.873Z,4.80
2018-11-10T19:59:34.322Z,5.10
2018-11-10T20:02:03.021Z,4.90
2018-11-10T20:04:31.421Z,4.17
2018-11-10T20:06:59.796Z,4.27
2018-11-10T20:09:28.488Z,4.83
2018-11-10T20:11:57.231Z,4.70
2018-11-10T20:14:25.821Z,4.60
2018-11-10T20:16:54.433Z,4.63
2018-11-10T20:19:23.002Z,4.57
2018-11-10T20:21:51.598Z,4.40
2018-11-10T20:24:21.455Z,4.43
2018-11-10T20:26:50.200Z,4.30
2018-11-10T20:29:20.281Z,4.60
2018-11-10T20:31:48.975Z,5.10
2018-11-10T20:34:17.697Z,4.23
2018-11-10T20:36:46.946Z,4.00
2018-11-10T20:39:15.888Z,4.53
2018-11-10T20:41:44.532Z,3.40
2018-11-10T20:44:13.081Z,3.80
2018-11-10T20:46:42.822Z,3.87
2018-11-10T20:49:11.518Z,3.90
2018-11-10T20:51:40.324Z,3.43
2018-11-10T20:54:09.300Z,4.23
2018-11-10T20:56:38.121Z,3.80
2018-11-10T20:59:11.560Z,4.00
2018-11-10T21:01:39.964Z,3.90
2018-11-10T21:04:08.900Z,3.93
2018-11-10T21:06:37.610Z,3.87
2018-11-10T21:09:09.047Z,3.53
2018-11-10T21:11:37.649Z,3.30
2018-11-10T21:14:06.920Z,4.50
2018-11-10T21:16:35.621Z,3.67
2018-11-10T21:19:04.519Z,3.20
2018-11-10T21:21:33.071Z,3.40
2018-11-10T21:24:05.167Z,3.30
2018-11-10T21:26:34.021Z,3.07
2018-11-10T21:29:02.580Z,3.90
2018-11-10T21:31:37.682Z,3.47
2018-11-10T21:34:06.747Z,3.83
2018-11-10T21:36:37.209Z,4.23
2018-11-10T21:39:08.383Z,3.50
2018-11-10T21:41:37.145Z,4.20
2018-11-10T21:44:05.960Z,4.07
2018-11-10T21:46:34.707Z,4.50
2018-11-10T21:49:03.305Z,4.20
2018-11-10T21:51:31.929Z,4.00
2018-11-10T21:54:00.504Z,4.20
2018-11-10T21:56:29.087Z,4.67
2018-11-10T21:58:58.479Z,4.97
2018-11-10T22:01:27.155Z,5.07
2018-11-10T22:03:56.042Z,4.67
2018-11-10T22:06:24.703Z,4.97
2018-11-10T22:08:53.386Z,4.73
2018-11-10T22:11:22.557Z,4.80
2018-11-10T22:13:51.261Z,5.50
2018-11-10T22:16:19.911Z,5.23
2018-11-10T22:18:48.732Z,5.77
2018-11-10T22:21:17.350Z,5.50
2018-11-10T22:23:46.872Z,5.67
2018-11-10T22:26:15.813Z,7.13
2018-11-10T22:28:44.397Z,6.73
2018-11-10T22:31:13.057Z,6.13
2018-11-10T22:33:41.514Z,6.77
2018-11-10T22:36:10.043Z,6.73
2018-11-10T22:38:38.674Z,6.97
2018-11-10T22:41:07.268Z,7.00
2018-11-10T22:43:35.929Z,8.63
2018-11-10T22:46:04.601Z,7.23
2018-11-10T22:48:33.136Z,6.83
2018-11-10T22:51:01.610Z,7.17
2018-11-10T22:53:30.173Z,7.70
2018-11-10T22:55:58.795Z,6.70
2018-11-10T22:58:27.396Z,7.20
2018-11-10T23:01:01.679Z,8.03
2018-11-10T23:03:30.376Z,7.83
2018-11-10T23:05:58.852Z,7.97
2018-11-10T23:08:27.458Z,9.47
2018-11-10T23:10:56.599Z,8.83
2018-11-10T23:13:25.360Z,8.17
2018-11-10T23:15:54.029Z,7.67
2018-11-10T23:18:22.778Z,8.33
2018-11-10T23:20:51.445Z,8.43
2018-11-10T23:23:20.209Z,9.07
2018-11-10T23:25:49.859Z,8.53
2018-11-10T23:28:18.614Z,8.80
2018-11-10T23:30:47.253Z,8.67
2018-11-10T23:33:15.919Z,9.90
2018-11-10T23:35:44.499Z,8.57
2018-11-10T23:38:13.951Z,8.63
2018-11-10T23:40:42.512Z,8.43
2018-11-10T23:43:11.118Z,9.50
2018-11-10T23:45:40.473Z,9.50
2018-11-10T23:48:09.159Z,9.03
2018-11-10T23:50:37.832Z,8.70
2018-11-10T23:53:07.062Z,8.93
2018-11-10T23:55:35.697Z,9.57
2018-11-10T23:58:04.533Z,9.20
